Terminal Aerodrome Forecast
Issued by NWS Charleston, WV

Current Version | Previous Version | Graphics & Text | Print | Product List | Glossary On
Versions: 1 2 3 4 5 6 7 8 9 10 11 12 13 14 15 16 17 18 19 20 21 22 23 24 25 26 27 28 29 30 31 32
000
FTUS41 KRLX 301227 AAA
TAFHTS
TAF AMD
KHTS 301227Z 3012/0112 VRB02KT 3SM BR OVC012
     FM301500 VRB02KT 6SM BR BKN015
     FM302100 VRB03KT P6SM BKN035
     FM010800 VRB02KT 1SM BR SCT001=

USA.gov is the U.S. government's official web portal to all federal, state and local government web resources and services.